Time;durP1;ratioP1;P1;durP2;ratioP2;P2;SDS_P1;SDS_P2;PMS_P1;PMS_P2;Temp;Humidity;BMP_temperature;BMP_pressure;BME280_temperature;BME280_humidity;BME280_pressure;Samples;Min_cycle;Max_cycle;Signal;HPM_P1;HPM_P2
2021/04/06 00:00:49;;;;;;;;;;;19.70;56.40;;;;;;5021146;28;1147;-70
2021/04/06 00:03:15;;;;;;;;;;;19.70;56.40;;;;;;5020619;28;1890;-70
2021/04/06 00:05:40;;;;;;;;;;;19.70;56.40;;;;;;5044023;28;1163;-69
2021/04/06 00:08:06;;;;;;;;;;;19.70;56.40;;;;;;5043589;28;1295;-69
2021/04/06 00:10:33;;;;;;;;;;;19.70;56.40;;;;;;5050867;28;1211;-68
2021/04/06 00:12:58;;;;;;;;;;;19.70;56.50;;;;;;5036281;28;1382;-69
2021/04/06 00:15:24;;;;;;;;;;;19.70;56.50;;;;;;5044336;28;1175;-69
2021/04/06 00:17:49;;;;;;;;;;;19.70;56.50;;;;;;5060962;28;1053;-68
2021/04/06 00:20:15;;;;;;;;;;;19.70;56.50;;;;;;5037561;28;1347;-68
2021/04/06 00:22:40;;;;;;;;;;;19.70;56.50;;;;;;5036688;28;1906;-71
2021/04/06 00:25:06;;;;;;;;;;;19.70;56.50;;;;;;5043256;28;1322;-71
2021/04/06 00:27:37;;;;;;;;;;;19.70;56.50;;;;;;5043895;28;1305;-68
2021/04/06 00:30:04;;;;;;;;;;;19.70;56.50;;;;;;5037299;28;1012;-69
2021/04/06 00:32:29;;;;;;;;;;;19.70;56.50;;;;;;5054941;28;1311;-68
2021/04/06 00:34:56;;;;;;;;;;;19.60;56.50;;;;;;5054984;28;1354;-69
2021/04/06 00:37:21;;;;;;;;;;;19.60;56.50;;;;;;5032860;28;1248;-69
2021/04/06 00:39:47;;;;;;;;;;;19.60;56.50;;;;;;5036954;28;1399;-70
2021/04/06 00:42:13;;;;;;;;;;;19.70;56.50;;;;;;5020364;28;1910;-70
2021/04/06 00:44:42;;;;;;;;;;;19.60;56.50;;;;;;5068125;28;1230;-72
2021/04/06 00:47:09;;;;;;;;;;;19.60;56.50;;;;;;5036632;28;1301;-70
2021/04/06 00:49:34;;;;;;;;;;;19.60;56.50;;;;;;5045504;28;1218;-70
2021/04/06 00:52:00;;;;;;;;;;;19.60;56.50;;;;;;5025959;28;1336;-70
2021/04/06 00:54:26;;;;;;;;;;;19.60;56.50;;;;;;5036454;28;1470;-70
2021/04/06 00:56:54;;;;;;;;;;;19.70;56.60;;;;;;5067416;28;1702;-70
2021/04/06 00:59:23;;;;;;;;;;;19.60;56.50;;;;;;5036173;28;1296;-70
2021/04/06 01:01:55;;;;;;;;;;;19.60;56.60;;;;;;5054120;28;1902;-70
2021/04/06 01:04:24;;;;;;;;;;;19.60;56.60;;;;;;5036408;28;1362;-70
2021/04/06 01:06:56;;;;;;;;;;;19.60;56.60;;;;;;5036064;28;1275;-70
2021/04/06 01:09:34;;;;;;;;;;;19.60;56.60;;;;;;5053760;28;1236;-70
2021/04/06 01:12:03;;;;;;;;;;;19.60;56.60;;;;;;5067531;28;1234;-72
2021/04/06 01:14:29;;;;;;;;;;;19.60;56.60;;;;;;5054326;28;1205;-70
2021/04/06 01:16:55;;;;;;;;;;;19.60;56.60;;;;;;5053476;28;1306;-72
2021/04/06 01:19:20;;;;;;;;;;;19.60;56.60;;;;;;5035886;28;1287;-70
2021/04/06 01:21:46;;;;;;;;;;;19.60;56.60;;;;;;5019239;28;1957;-68
2021/04/06 01:24:12;;;;;;;;;;;19.60;56.60;;;;;;5035842;28;1196;-69
2021/04/06 01:26:37;;;;;;;;;;;19.60;56.60;;;;;;5049165;28;1201;-69
2021/04/06 01:29:04;;;;;;;;;;;19.60;56.60;;;;;;5035549;28;1270;-69
2021/04/06 01:31:29;;;;;;;;;;;19.60;56.70;;;;;;5066825;28;1107;-69
2021/04/06 01:33:55;;;;;;;;;;;19.60;56.60;;;;;;5048266;28;1323;-69
2021/04/06 01:36:20;;;;;;;;;;;19.60;56.60;;;;;;5054457;28;1131;-68
2021/04/06 01:38:46;;;;;;;;;;;19.60;56.70;;;;;;5035415;28;1473;-70
2021/04/06 01:41:11;;;;;;;;;;;19.60;56.60;;;;;;5019106;28;1374;-69
2021/04/06 01:43:40;;;;;;;;;;;19.60;56.60;;;;;;5065722;28;1958;-69
2021/04/06 01:46:15;;;;;;;;;;;19.60;56.60;;;;;;5041898;28;1376;-70
2021/04/06 01:48:40;;;;;;;;;;;19.60;56.60;;;;;;5041534;28;1267;-72
2021/04/06 01:51:06;;;;;;;;;;;19.60;56.60;;;;;;5042156;28;1073;-71
2021/04/06 01:53:31;;;;;;;;;;;19.60;56.60;;;;;;5059989;28;1347;-71
2021/04/06 01:56:06;;;;;;;;;;;19.60;56.50;;;;;;5066717;28;1226;-71
2021/04/06 01:58:33;;;;;;;;;;;19.70;56.60;;;;;;5049678;28;1108;-70
2021/04/06 02:03:27;;;;;;;;;;;19.70;56.60;;;;;;5035557;28;1910;-70
2021/04/06 02:05:53;;;;;;;;;;;19.60;56.50;;;;;;5035843;28;1258;-71
2021/04/06 02:08:19;;;;;;;;;;;19.60;56.50;;;;;;5034701;28;1236;-71
2021/04/06 02:10:44;;;;;;;;;;;19.60;56.40;;;;;;5035479;28;1318;-71
2021/04/06 02:13:13;;;;;;;;;;;19.60;56.40;;;;;;5051957;28;1355;-68
2021/04/06 02:15:40;;;;;;;;;;;19.70;56.50;;;;;;5035165;28;1300;-71
2021/04/06 02:18:05;;;;;;;;;;;19.60;56.40;;;;;;5052445;28;1291;-70
2021/04/06 02:20:30;;;;;;;;;;;19.70;56.40;;;;;;5052893;28;1326;-70
2021/04/06 02:22:57;;;;;;;;;;;19.70;56.40;;;;;;5052970;28;1955;-70
2021/04/06 02:25:22;;;;;;;;;;;19.70;56.40;;;;;;5035114;28;1301;-70
2021/04/06 02:27:47;;;;;;;;;;;19.70;56.40;;;;;;5063247;28;1075;-71
2021/04/06 02:30:13;;;;;;;;;;;19.70;56.40;;;;;;5052408;28;1303;-71
2021/04/06 02:32:38;;;;;;;;;;;19.70;56.40;;;;;;5052476;28;1348;-70
2021/04/06 02:35:05;;;;;;;;;;;19.70;56.40;;;;;;5052428;28;1387;-71
2021/04/06 02:37:31;;;;;;;;;;;19.70;56.30;;;;;;5040283;28;1292;-71
2021/04/06 02:40:06;;;;;;;;;;;19.70;56.30;;;;;;5042422;28;1240;-71
2021/04/06 02:42:35;;;;;;;;;;;19.80;56.30;;;;;;5040112;28;1907;-71
2021/04/06 02:45:08;;;;;;;;;;;19.80;56.20;;;;;;5056019;28;1873;-71
2021/04/06 02:47:38;;;;;;;;;;;19.90;56.00;;;;;;5040917;28;1239;-71
2021/04/06 02:50:04;;;;;;;;;;;20.10;55.90;;;;;;5040135;28;1255;-71
2021/04/06 02:52:30;;;;;;;;;;;20.20;55.60;;;;;;5051868;28;1303;-72
2021/04/06 02:54:55;;;;;;;;;;;20.30;55.40;;;;;;5051990;28;1397;-72
2021/04/06 02:57:24;;;;;;;;;;;20.30;55.20;;;;;;5039861;28;1203;-69
2021/04/06 02:59:50;;;;;;;;;;;20.40;54.90;;;;;;5041905;28;1279;-70
2021/04/06 03:02:15;;;;;;;;;;;20.50;54.70;;;;;;5051822;28;1894;-70
2021/04/06 03:04:41;;;;;;;;;;;20.60;54.50;;;;;;5049199;28;1245;-70
2021/04/06 03:07:21;;;;;;;;;;;20.70;54.40;;;;;;5035525;28;1241;-71
2021/04/06 03:09:50;;;;;;;;;;;20.80;54.30;;;;;;5052871;28;1197;-71
2021/04/06 03:12:16;;;;;;;;;;;20.80;54.10;;;;;;5047150;28;1299;-71
2021/04/06 03:14:41;;;;;;;;;;;20.90;54.00;;;;;;5034615;28;1175;-71
2021/04/06 03:17:06;;;;;;;;;;;20.90;53.80;;;;;;5051875;28;1344;-70
2021/04/06 03:19:32;;;;;;;;;;;20.90;53.70;;;;;;5052765;28;1287;-69
2021/04/06 03:21:57;;;;;;;;;;;21.00;53.60;;;;;;5065283;28;1890;-69
2021/04/06 03:24:23;;;;;;;;;;;21.10;53.60;;;;;;5034614;28;1264;-69
2021/04/06 03:26:49;;;;;;;;;;;21.10;53.50;;;;;;5018057;28;1428;-68
2021/04/06 03:29:16;;;;;;;;;;;21.10;53.40;;;;;;5051913;28;1314;-69
2021/04/06 03:31:41;;;;;;;;;;;21.10;53.40;;;;;;5041496;28;1365;-69
2021/04/06 03:34:07;;;;;;;;;;;21.20;53.30;;;;;;5040970;28;1413;-71
2021/04/06 03:36:32;;;;;;;;;;;21.20;53.30;;;;;;5030206;28;1450;-70
2021/04/06 03:39:01;;;;;;;;;;;21.20;53.20;;;;;;5051897;28;1400;-70
2021/04/06 03:41:27;;;;;;;;;;;21.30;53.20;;;;;;5028243;28;1749;-69
2021/04/06 03:43:53;;;;;;;;;;;21.30;53.20;;;;;;5061535;28;1955;-70
2021/04/06 03:46:22;;;;;;;;;;;21.30;53.20;;;;;;5045091;28;1242;-70
2021/04/06 03:48:47;;;;;;;;;;;21.30;53.10;;;;;;5045989;28;1306;-69
2021/04/06 03:51:23;;;;;;;;;;;21.30;53.10;;;;;;5042512;28;1231;-69
2021/04/06 03:53:48;;;;;;;;;;;21.30;53.10;;;;;;5051743;28;1303;-70
2021/04/06 03:56:14;;;;;;;;;;;21.40;53.10;;;;;;5055017;28;1228;-70
2021/04/06 03:58:53;;;;;;;;;;;21.40;53.10;;;;;;5054986;28;1224;-71
2021/04/06 04:01:19;;;;;;;;;;;21.40;53.10;;;;;;5054572;28;1204;-71
2021/04/06 04:03:44;;;;;;;;;;;21.30;53.10;;;;;;5054735;28;1894;-72
2021/04/06 04:06:09;;;;;;;;;;;21.30;53.10;;;;;;5055108;28;1283;-71
2021/04/06 04:08:35;;;;;;;;;;;21.30;53.20;;;;;;5054985;28;1128;-71
2021/04/06 04:11:00;;;;;;;;;;;21.30;53.20;;;;;;5055274;28;1256;-72
2021/04/06 04:13:26;;;;;;;;;;;21.30;53.20;;;;;;5054335;28;1306;-71
2021/04/06 04:15:51;;;;;;;;;;;21.30;53.30;;;;;;5055469;28;1327;-72
2021/04/06 04:18:17;;;;;;;;;;;21.30;53.30;;;;;;5054392;28;1327;-72
2021/04/06 04:20:42;;;;;;;;;;;21.30;53.30;;;;;;5041450;28;1192;-71
2021/04/06 04:23:08;;;;;;;;;;;21.30;53.40;;;;;;5054193;28;1958;-71
2021/04/06 04:25:34;;;;;;;;;;;21.20;53.40;;;;;;5051443;28;1319;-71
2021/04/06 04:27:59;;;;;;;;;;;21.20;53.40;;;;;;5042927;28;1315;-71
2021/04/06 04:30:42;;;;;;;;;;;21.20;53.40;;;;;;5054347;28;1299;-71
2021/04/06 04:33:09;;;;;;;;;;;21.20;53.50;;;;;;5044750;28;1320;-71
2021/04/06 04:35:34;;;;;;;;;;;21.20;53.60;;;;;;5054632;28;1240;-71
2021/04/06 04:38:00;;;;;;;;;;;21.20;53.60;;;;;;5053974;28;1310;-71
2021/04/06 04:40:25;;;;;;;;;;;21.10;53.60;;;;;;5049865;28;1338;-71
2021/04/06 04:42:51;;;;;;;;;;;21.10;53.70;;;;;;5054235;28;1894;-71
2021/04/06 04:45:17;;;;;;;;;;;21.10;53.70;;;;;;5054827;28;1252;-71
2021/04/06 04:47:42;;;;;;;;;;;21.10;53.70;;;;;;5051317;28;1366;-70
2021/04/06 04:50:08;;;;;;;;;;;21.10;53.80;;;;;;5047078;28;1530;-71
2021/04/06 04:52:34;;;;;;;;;;;21.00;53.80;;;;;;5035379;28;1327;-71
2021/04/06 04:54:59;;;;;;;;;;;21.00;53.80;;;;;;5054452;28;1350;-70
2021/04/06 04:57:24;;;;;;;;;;;21.00;53.90;;;;;;5053929;28;1395;-70
2021/04/06 04:59:50;;;;;;;;;;;21.00;53.90;;;;;;5054174;28;1283;-71
2021/04/06 05:02:16;;;;;;;;;;;21.00;54.00;;;;;;5054105;28;1949;-71
2021/04/06 05:04:42;;;;;;;;;;;21.00;54.00;;;;;;5054146;28;1340;-71
2021/04/06 05:07:07;;;;;;;;;;;20.90;54.00;;;;;;5053727;28;1376;-70
2021/04/06 05:09:33;;;;;;;;;;;20.90;54.10;;;;;;5053992;28;1286;-71
2021/04/06 05:11:58;;;;;;;;;;;21.00;54.20;;;;;;5053937;28;1372;-71
2021/04/06 05:14:24;;;;;;;;;;;20.90;54.10;;;;;;5053243;28;1286;-71
2021/04/06 05:16:49;;;;;;;;;;;21.00;54.20;;;;;;5053953;28;1334;-71
2021/04/06 05:19:14;;;;;;;;;;;21.00;54.20;;;;;;5053587;28;1321;-71
2021/04/06 05:21:40;;;;;;;;;;;21.00;54.10;;;;;;5053849;28;1311;-71
2021/04/06 05:24:06;;;;;;;;;;;21.00;54.10;;;;;;5035989;28;1263;-71
2021/04/06 05:26:31;;;;;;;;;;;21.00;54.00;;;;;;5053608;28;1304;-71
2021/04/06 05:28:56;;;;;;;;;;;21.00;54.00;;;;;;5018909;28;1281;-71
2021/04/06 05:31:22;;;;;;;;;;;21.10;54.00;;;;;;5053584;28;1040;-71
2021/04/06 05:33:47;;;;;;;;;;;21.10;54.00;;;;;;5035733;28;1325;-71
2021/04/06 05:36:13;;;;;;;;;;;21.10;53.90;;;;;;5053563;28;1971;-71
2021/04/06 05:38:38;;;;;;;;;;;21.10;53.90;;;;;;5053161;28;1387;-71
2021/04/06 05:41:04;;;;;;;;;;;21.10;53.90;;;;;;5042019;28;1317;-68
2021/04/06 05:43:29;;;;;;;;;;;21.10;53.90;;;;;;5047340;28;2161;-68
2021/04/06 05:45:55;;;;;;;;;;;21.10;53.90;;;;;;5026813;28;1300;-68
2021/04/06 05:48:21;;;;;;;;;;;21.10;54.00;;;;;;5034937;28;1159;-69
2021/04/06 05:50:48;;;;;;;;;;;21.00;53.90;;;;;;5035387;28;1321;-69
2021/04/06 05:53:14;;;;;;;;;;;21.00;53.90;;;;;;5035312;28;1382;-69
2021/04/06 05:55:39;;;;;;;;;;;21.00;54.00;;;;;;5034016;28;1834;-69
2021/04/06 05:58:05;;;;;;;;;;;21.00;54.00;;;;;;5051178;28;953;-69
2021/04/06 06:00:30;;;;;;;;;;;21.00;54.00;;;;;;5043582;28;1396;-69
2021/04/06 06:02:56;;;;;;;;;;;21.00;54.10;;;;;;5034244;28;1902;-69
2021/04/06 06:05:21;;;;;;;;;;;21.00;54.10;;;;;;5035035;28;1251;-69
2021/04/06 06:07:47;;;;;;;;;;;21.00;54.10;;;;;;5063378;28;1138;-69
2021/04/06 06:10:31;;;;;;;;;;;21.00;54.10;;;;;;5055558;28;1366;-70
2021/04/06 06:13:15;;;;;;;;;;;21.00;54.20;;;;;;5034310;28;1288;-67
2021/04/06 06:15:41;;;;;;;;;;;20.90;54.10;;;;;;5045392;28;960;-68
2021/04/06 06:18:06;;;;;;;;;;;20.90;54.20;;;;;;5034846;28;1382;-69
2021/04/06 06:20:32;;;;;;;;;;;20.90;54.20;;;;;;5052326;28;904;-68
2021/04/06 06:23:17;;;;;;;;;;;20.90;54.30;;;;;;5034708;28;1906;-69
2021/04/06 06:25:42;;;;;;;;;;;20.90;54.30;;;;;;5034747;28;1315;-69
2021/04/06 06:28:12;;;;;;;;;;;20.90;54.30;;;;;;5034168;28;1304;-67
2021/04/06 06:30:39;;;;;;;;;;;20.90;54.40;;;;;;5052560;28;1274;-69
2021/04/06 06:33:24;;;;;;;;;;;20.80;54.40;;;;;;5034727;28;1321;-68
2021/04/06 06:35:53;;;;;;;;;;;20.80;54.40;;;;;;5052659;28;1354;-68
2021/04/06 06:38:19;;;;;;;;;;;20.80;54.50;;;;;;5052310;28;1371;-68
2021/04/06 06:40:45;;;;;;;;;;;20.80;54.50;;;;;;5052778;28;1315;-68
2021/04/06 06:43:11;;;;;;;;;;;20.80;54.50;;;;;;5052452;28;1914;-68
2021/04/06 06:45:36;;;;;;;;;;;20.80;54.60;;;;;;5052684;28;1292;-67
2021/04/06 06:48:02;;;;;;;;;;;20.80;54.60;;;;;;5046671;28;1256;-68
2021/04/06 06:50:27;;;;;;;;;;;20.70;54.50;;;;;;5046509;28;1257;-67
2021/04/06 06:52:53;;;;;;;;;;;20.80;54.60;;;;;;5052701;28;1223;-66
2021/04/06 06:55:23;;;;;;;;;;;20.70;54.60;;;;;;5034709;28;1646;-67
2021/04/06 06:57:49;;;;;;;;;;;20.70;54.70;;;;;;5034447;28;1326;-67
2021/04/06 07:00:21;;;;;;;;;;;20.70;55.30;;;;;;5052634;28;1276;-67
2021/04/06 07:02:46;;;;;;;;;;;20.70;54.70;;;;;;5052299;28;1953;-67
2021/04/06 07:05:19;;;;;;;;;;;20.70;54.80;;;;;;5034947;28;1346;-67
2021/04/06 07:08:04;;;;;;;;;;;20.70;54.80;;;;;;5034807;28;1176;-67
2021/04/06 07:10:30;;;;;;;;;;;20.70;54.80;;;;;;5052863;28;1315;-66
2021/04/06 07:12:57;;;;;;;;;;;20.70;54.80;;;;;;5065710;28;1357;-67
2021/04/06 07:15:23;;;;;;;;;;;20.60;54.80;;;;;;5036289;28;1370;-66
2021/04/06 07:17:48;;;;;;;;;;;20.60;54.90;;;;;;5051621;28;1105;-65
2021/04/06 07:20:18;;;;;;;;;;;20.60;54.80;;;;;;5038791;28;1324;-66
2021/04/06 07:22:44;;;;;;;;;;;20.60;54.90;;;;;;5055991;28;1949;-66
2021/04/06 07:25:10;;;;;;;;;;;20.60;54.90;;;;;;5046029;28;1229;-67
2021/04/06 07:27:40;;;;;;;;;;;20.60;54.90;;;;;;5043945;28;1382;-67
2021/04/06 07:30:06;;;;;;;;;;;20.60;54.90;;;;;;5056210;28;1287;-66
2021/04/06 07:32:32;;;;;;;;;;;20.60;54.90;;;;;;5068949;28;1294;-67
2021/04/06 07:34:57;;;;;;;;;;;20.60;55.00;;;;;;5028684;28;1332;-67
2021/04/06 07:37:23;;;;;;;;;;;20.60;55.00;;;;;;5061113;28;1274;-68
2021/04/06 07:39:49;;;;;;;;;;;20.50;55.00;;;;;;5068695;28;1290;-67
2021/04/06 07:42:14;;;;;;;;;;;20.50;55.00;;;;;;5056305;28;1902;-66
2021/04/06 07:44:40;;;;;;;;;;;20.50;55.00;;;;;;5056612;28;1641;-68
2021/04/06 07:47:05;;;;;;;;;;;20.50;55.00;;;;;;5056886;28;1178;-66
2021/04/06 07:49:31;;;;;;;;;;;20.50;55.00;;;;;;5050868;28;1566;-67
2021/04/06 07:51:58;;;;;;;;;;;20.50;55.10;;;;;;5056571;28;1612;-67
2021/04/06 07:54:24;;;;;;;;;;;20.50;55.10;;;;;;5068529;28;1196;-67
2021/04/06 07:56:59;;;;;;;;;;;20.50;55.10;;;;;;5051392;28;1630;-67
2021/04/06 07:59:24;;;;;;;;;;;20.50;55.10;;;;;;5055642;28;1631;-69
2021/04/06 08:01:50;;;;;;;;;;;20.40;55.10;;;;;;5055549;28;1894;-69
2021/04/06 08:04:15;;;;;;;;;;;20.40;55.10;;;;;;5055464;28;1697;-69
2021/04/06 08:06:48;;;;;;;;;;;20.40;55.20;;;;;;5037533;28;1572;-69
2021/04/06 08:09:42;;;;;;;;;;;20.40;55.20;;;;;;5037126;28;1346;-69
2021/04/06 08:12:11;;;;;;;;;;;20.40;55.20;;;;;;5055425;28;1419;-68
2021/04/06 08:14:40;;;;;;;;;;;20.40;55.20;;;;;;5054041;28;1430;-69
2021/04/06 08:17:23;;;;;;;;;;;20.40;55.30;;;;;;5055060;28;1116;-69
2021/04/06 08:19:49;;;;;;;;;;;20.40;55.30;;;;;;5055188;28;1572;-70
2021/04/06 08:22:18;;;;;;;;;;;20.40;55.30;;;;;;5037185;28;1906;-69
2021/04/06 08:24:44;;;;;;;;;;;20.40;55.30;;;;;;5055388;28;1285;-68
2021/04/06 08:27:28;;;;;;;;;;;20.40;55.40;;;;;;5036659;28;1277;-69
2021/04/06 08:30:12;;;;;;;;;;;20.40;55.40;;;;;;5054731;28;1393;-68
2021/04/06 08:32:38;;;;;;;;;;;20.40;55.40;;;;;;5054451;28;1308;-67
2021/04/06 08:35:03;;;;;;;;;;;20.40;55.40;;;;;;5054595;28;1127;-68
2021/04/06 08:37:37;;;;;;;;;;;20.40;55.40;;;;;;5054370;28;1312;-68
2021/04/06 08:40:03;;;;;;;;;;;20.30;55.40;;;;;;5020545;28;1409;-68
2021/04/06 08:42:29;;;;;;;;;;;20.40;55.50;;;;;;5036716;28;1973;-67
2021/04/06 08:44:55;;;;;;;;;;;20.30;55.40;;;;;;5054283;28;1491;-68
2021/04/06 08:47:37;;;;;;;;;;;20.30;55.50;;;;;;5054319;28;1308;-68
2021/04/06 08:50:03;;;;;;;;;;;20.30;55.50;;;;;;5044693;28;1251;-68
2021/04/06 08:52:29;;;;;;;;;;;20.30;55.50;;;;;;5054399;28;1409;-68
2021/04/06 08:55:03;;;;;;;;;;;20.30;55.50;;;;;;5036942;28;1635;-68
2021/04/06 08:57:29;;;;;;;;;;;20.30;55.50;;;;;;5036343;28;1592;-69
2021/04/06 08:59:54;;;;;;;;;;;20.30;55.60;;;;;;5054517;28;1355;-68
2021/04/06 09:02:20;;;;;;;;;;;20.30;55.60;;;;;;5054124;28;1933;-68
2021/04/06 09:04:49;;;;;;;;;;;20.30;55.60;;;;;;5054503;28;1644;-69
2021/04/06 09:07:17;;;;;;;;;;;20.30;55.60;;;;;;5054196;28;1798;-68
2021/04/06 09:09:43;;;;;;;;;;;20.20;55.60;;;;;;5053020;28;1630;-68
2021/04/06 09:12:08;;;;;;;;;;;20.30;55.60;;;;;;5054481;28;1615;-68
2021/04/06 09:14:34;;;;;;;;;;;20.30;55.70;;;;;;5035958;28;1295;-68
2021/04/06 09:16:59;;;;;;;;;;;20.30;55.70;;;;;;5054009;28;1182;-68
2021/04/06 09:19:25;;;;;;;;;;;20.20;55.60;;;;;;5032217;28;2183;-68
2021/04/06 09:21:51;;;;;;;;;;;20.20;55.70;;;;;;5035784;28;1898;-68
2021/04/06 09:24:16;;;;;;;;;;;20.20;55.70;;;;;;5053316;28;1217;-68
2021/04/06 09:26:42;;;;;;;;;;;20.20;55.80;;;;;;5023129;28;927;-67
2021/04/06 09:29:14;;;;;;;;;;;20.20;55.80;;;;;;5016709;28;1266;-69
2021/04/06 09:31:47;;;;;;;;;;;20.20;55.80;;;;;;5030114;28;1272;-68
2021/04/06 09:34:13;;;;;;;;;;;20.20;55.80;;;;;;5048805;28;1296;-69
2021/04/06 09:36:39;;;;;;;;;;;20.20;55.90;;;;;;5026487;28;1072;-69
2021/04/06 09:39:05;;;;;;;;;;;20.20;55.90;;;;;;5032909;28;1438;-69
2021/04/06 09:41:31;;;;;;;;;;;20.10;55.80;;;;;;5035880;28;1247;-70
2021/04/06 09:43:57;;;;;;;;;;;20.10;55.90;;;;;;5034322;28;1963;-70
2021/04/06 09:46:31;;;;;;;;;;;20.10;55.90;;;;;;5035849;28;1360;-70
2021/04/06 09:48:56;;;;;;;;;;;20.10;55.90;;;;;;5043162;28;1411;-68
2021/04/06 09:51:22;;;;;;;;;;;20.10;55.90;;;;;;5035221;28;1388;-69
2021/04/06 09:53:47;;;;;;;;;;;20.10;55.90;;;;;;5035154;28;1308;-69
2021/04/06 09:56:13;;;;;;;;;;;20.10;56.00;;;;;;5035479;28;1324;-69
2021/04/06 09:58:38;;;;;;;;;;;20.10;56.00;;;;;;5018288;28;1401;-69
2021/04/06 10:01:16;;;;;;;;;;;20.10;56.00;;;;;;5035361;28;1124;-68
2021/04/06 10:03:45;;;;;;;;;;;20.10;56.00;;;;;;5052816;28;1902;-68
2021/04/06 10:06:12;;;;;;;;;;;20.10;56.00;;;;;;5034886;28;1263;-69
2021/04/06 10:08:38;;;;;;;;;;;20.10;56.00;;;;;;5034923;28;1417;-70
2021/04/06 10:11:03;;;;;;;;;;;20.10;56.00;;;;;;5052419;28;988;-69
2021/04/06 10:13:29;;;;;;;;;;;20.10;55.90;;;;;;5052223;28;1369;-70
2021/04/06 10:16:04;;;;;;;;;;;20.10;55.90;;;;;;5059425;28;1225;-70
2021/04/06 10:18:35;;;;;;;;;;;20.10;55.90;;;;;;5052014;28;1181;-69
2021/04/06 10:21:01;;;;;;;;;;;20.10;55.90;;;;;;5050195;28;1149;-70
2021/04/06 10:23:30;;;;;;;;;;;20.10;55.90;;;;;;5052202;28;1910;-69
2021/04/06 10:25:55;;;;;;;;;;;20.10;56.00;;;;;;5040173;28;1402;-67
2021/04/06 10:28:22;;;;;;;;;;;20.10;56.00;;;;;;5046576;28;1390;-68
2021/04/06 10:30:49;;;;;;;;;;;20.10;56.00;;;;;;5040869;28;1243;-67
2021/04/06 10:33:15;;;;;;;;;;;20.10;56.00;;;;;;5051032;28;1422;-67
2021/04/06 10:35:49;;;;;;;;;;;20.10;56.00;;;;;;5051535;28;1398;-70
2021/04/06 10:38:16;;;;;;;;;;;20.10;56.00;;;;;;5050166;28;1335;-68
2021/04/06 10:40:42;;;;;;;;;;;20.10;56.00;;;;;;5047630;28;1919;-70
2021/04/06 10:43:18;;;;;;;;;;;20.10;56.00;;;;;;5036003;28;1975;-69
2021/04/06 10:45:45;;;;;;;;;;;20.10;56.10;;;;;;5045963;28;1204;-69
2021/04/06 10:48:15;;;;;;;;;;;20.10;56.00;;;;;;5023031;28;1558;-68
2021/04/06 10:50:44;;;;;;;;;;;20.10;56.00;;;;;;5043832;28;1217;-66
2021/04/06 10:53:14;;;;;;;;;;;20.00;56.00;;;;;;5042984;28;1299;-70
2021/04/06 10:55:39;;;;;;;;;;;20.00;56.00;;;;;;5039703;28;1390;-71
2021/04/06 10:58:05;;;;;;;;;;;20.10;56.00;;;;;;5053045;28;1373;-72
2021/04/06 11:00:31;;;;;;;;;;;20.10;56.10;;;;;;5054694;28;1347;-71
2021/04/06 11:03:12;;;;;;;;;;;20.00;56.00;;;;;;5040414;28;1980;-73
2021/04/06 11:05:39;;;;;;;;;;;20.10;56.10;;;;;;5054363;28;1384;-71
2021/04/06 11:08:20;;;;;;;;;;;20.00;56.00;;;;;;5037621;28;1622;-71
2021/04/06 11:10:46;;;;;;;;;;;20.00;56.00;;;;;;5056494;28;1659;-71
2021/04/06 11:13:12;;;;;;;;;;;20.00;56.00;;;;;;5038039;28;1580;-72
2021/04/06 11:15:37;;;;;;;;;;;20.00;56.10;;;;;;5056718;28;1461;-72
2021/04/06 11:18:03;;;;;;;;;;;20.00;56.00;;;;;;5056120;28;1642;-73
2021/04/06 11:20:28;;;;;;;;;;;20.00;56.00;;;;;;5056715;28;1347;-73
2021/04/06 11:22:53;;;;;;;;;;;20.00;56.00;;;;;;5056016;28;1905;-73
2021/04/06 11:25:19;;;;;;;;;;;20.00;56.10;;;;;;5038503;28;1660;-73
2021/04/06 11:27:44;;;;;;;;;;;20.00;56.00;;;;;;5038003;28;1656;-72
2021/04/06 11:30:10;;;;;;;;;;;20.00;56.00;;;;;;5056102;28;1115;-72
2021/04/06 11:32:35;;;;;;;;;;;20.00;56.00;;;;;;5056386;28;1682;-72
2021/04/06 11:35:01;;;;;;;;;;;20.00;56.00;;;;;;5055986;28;1199;-72
2021/04/06 11:37:26;;;;;;;;;;;20.00;56.00;;;;;;5038371;28;1656;-72
2021/04/06 11:39:52;;;;;;;;;;;20.00;56.00;;;;;;5055711;28;805;-71
2021/04/06 11:42:17;;;;;;;;;;;20.00;56.00;;;;;;5055779;28;1977;-71
2021/04/06 11:44:43;;;;;;;;;;;20.00;56.00;;;;;;5055783;28;1346;-72
2021/04/06 11:47:08;;;;;;;;;;;20.00;56.10;;;;;;5037867;28;1459;-70
2021/04/06 11:49:34;;;;;;;;;;;20.00;56.10;;;;;;5044733;28;1430;-70
2021/04/06 11:51:59;;;;;;;;;;;20.00;56.10;;;;;;5037895;28;1622;-70
2021/04/06 11:54:25;;;;;;;;;;;20.00;56.10;;;;;;5044681;28;1479;-69
2021/04/06 11:56:51;;;;;;;;;;;20.00;56.10;;;;;;5043930;28;1722;-69
2021/04/06 11:59:16;;;;;;;;;;;20.00;56.10;;;;;;5055489;28;1379;-69
2021/04/06 12:01:42;;;;;;;;;;;20.00;56.10;;;;;;5055087;28;1458;-68
2021/04/06 12:04:08;;;;;;;;;;;20.00;56.10;;;;;;5055371;28;1898;-68
2021/04/06 12:06:33;;;;;;;;;;;20.00;56.00;;;;;;5037832;28;1589;-68
2021/04/06 12:08:59;;;;;;;;;;;20.00;56.00;;;;;;5062406;28;1420;-68
2021/04/06 12:11:24;;;;;;;;;;;20.10;56.00;;;;;;5043935;28;1614;-68
2021/04/06 12:13:50;;;;;;;;;;;20.10;55.90;;;;;;5053631;28;1403;-68
2021/04/06 12:16:15;;;;;;;;;;;20.20;55.80;;;;;;5050455;28;1248;-69
2021/04/06 12:18:40;;;;;;;;;;;20.30;55.60;;;;;;5053813;28;1364;-71
2021/04/06 12:21:09;;;;;;;;;;;20.40;55.40;;;;;;5054135;28;1365;-69
2021/04/06 12:23:35;;;;;;;;;;;20.50;55.20;;;;;;5053738;28;1906;-70
2021/04/06 12:26:01;;;;;;;;;;;20.60;55.10;;;;;;5051358;28;1339;-68
2021/04/06 12:28:26;;;;;;;;;;;20.60;54.80;;;;;;5039767;28;1425;-69
2021/04/06 12:30:51;;;;;;;;;;;20.70;54.60;;;;;;5054539;28;1221;-68
2021/04/06 12:33:17;;;;;;;;;;;20.80;54.50;;;;;;5041843;28;1401;-68
2021/04/06 12:35:42;;;;;;;;;;;20.80;54.40;;;;;;5043253;28;1576;-68
2021/04/06 12:38:08;;;;;;;;;;;20.90;54.30;;;;;;5054464;28;1681;-67
2021/04/06 12:40:34;;;;;;;;;;;20.90;54.10;;;;;;5054992;28;1720;-69
2021/04/06 12:42:59;;;;;;;;;;;21.00;54.10;;;;;;5061877;28;1975;-69
2021/04/06 12:45:25;;;;;;;;;;;21.00;54.00;;;;;;5026685;28;1597;-67
2021/04/06 12:47:50;;;;;;;;;;;21.00;53.80;;;;;;5033474;28;1630;-68
2021/04/06 12:50:16;;;;;;;;;;;21.10;53.80;;;;;;5053630;28;1225;-68
2021/04/06 12:52:41;;;;;;;;;;;21.10;53.80;;;;;;5036840;28;1663;-68
2021/04/06 12:55:07;;;;;;;;;;;21.10;53.70;;;;;;5054546;28;1644;-69
2021/04/06 12:57:32;;;;;;;;;;;21.10;53.60;;;;;;5054376;28;911;-68
2021/04/06 12:59:58;;;;;;;;;;;21.20;53.70;;;;;;5054534;28;1589;-68
2021/04/06 13:02:23;;;;;;;;;;;21.20;53.60;;;;;;5054255;28;1952;-69
2021/04/06 13:04:49;;;;;;;;;;;21.20;53.60;;;;;;5036679;28;1527;-68
2021/04/06 13:07:14;;;;;;;;;;;21.20;53.60;;;;;;5053943;28;1530;-68
2021/04/06 13:09:40;;;;;;;;;;;21.20;53.50;;;;;;5036563;28;1010;-68
2021/04/06 13:12:05;;;;;;;;;;;21.20;53.50;;;;;;5053747;28;1646;-68
2021/04/06 13:14:31;;;;;;;;;;;21.20;53.50;;;;;;5053019;28;1419;-68
2021/04/06 13:16:56;;;;;;;;;;;21.20;53.50;;;;;;5054247;28;1752;-68
2021/04/06 13:19:21;;;;;;;;;;;21.30;53.50;;;;;;5053835;28;1615;-68
2021/04/06 13:21:47;;;;;;;;;;;21.30;53.50;;;;;;5036284;28;1677;-68
2021/04/06 13:24:13;;;;;;;;;;;21.20;53.50;;;;;;5065999;28;1898;-68
2021/04/06 13:26:38;;;;;;;;;;;21.20;53.50;;;;;;5037364;28;1751;-68
2021/04/06 13:29:04;;;;;;;;;;;21.30;53.60;;;;;;5066035;28;1179;-68
2021/04/06 13:31:30;;;;;;;;;;;21.30;53.60;;;;;;5054785;28;1052;-68
2021/04/06 13:33:55;;;;;;;;;;;21.30;53.60;;;;;;5053804;28;1656;-68
2021/04/06 13:36:21;;;;;;;;;;;21.20;53.60;;;;;;5041807;28;1406;-67
2021/04/06 13:38:46;;;;;;;;;;;21.20;53.60;;;;;;5061172;28;1650;-68
2021/04/06 13:41:12;;;;;;;;;;;21.20;53.60;;;;;;5053689;28;1611;-68
2021/04/06 13:43:37;;;;;;;;;;;21.20;53.60;;;;;;5035747;28;1906;-68
2021/04/06 13:46:05;;;;;;;;;;;21.20;53.70;;;;;;5053807;28;1409;-67
2021/04/06 13:48:31;;;;;;;;;;;21.20;53.70;;;;;;5038686;28;1451;-67
2021/04/06 13:50:57;;;;;;;;;;;21.20;53.80;;;;;;5053826;28;1697;-68
2021/04/06 13:53:22;;;;;;;;;;;21.20;53.80;;;;;;5053521;28;1268;-68
2021/04/06 13:55:48;;;;;;;;;;;21.10;53.80;;;;;;5035740;28;1671;-68
2021/04/06 13:58:13;;;;;;;;;;;21.10;53.80;;;;;;5035493;28;1616;-66
2021/04/06 14:00:40;;;;;;;;;;;21.10;53.90;;;;;;5035602;28;1445;-68
2021/04/06 14:03:06;;;;;;;;;;;21.10;54.00;;;;;;5053257;28;1963;-66
2021/04/06 14:05:32;;;;;;;;;;;21.10;54.00;;;;;;5053273;28;1546;-66
2021/04/06 14:07:57;;;;;;;;;;;21.00;54.00;;;;;;5053107;28;1581;-66
2021/04/06 14:10:23;;;;;;;;;;;21.00;54.00;;;;;;5053028;28;1703;-68
2021/04/06 14:12:49;;;;;;;;;;;21.00;54.10;;;;;;5018842;28;1632;-68
2021/04/06 14:15:14;;;;;;;;;;;21.00;54.10;;;;;;5035373;28;1546;-68
2021/04/06 14:17:40;;;;;;;;;;;21.00;54.10;;;;;;5034965;28;1596;-68
2021/04/06 14:20:07;;;;;;;;;;;21.00;54.20;;;;;;5053154;28;1599;-67
2021/04/06 14:22:32;;;;;;;;;;;21.00;54.20;;;;;;5035131;28;1894;-67
2021/04/06 14:24:58;;;;;;;;;;;20.90;54.60;;;;;;5053179;28;1619;-69
2021/04/06 14:27:23;;;;;;;;;;;21.00;54.30;;;;;;5052756;28;1357;-69
2021/04/06 14:29:49;;;;;;;;;;;20.90;54.30;;;;;;5052631;28;1346;-69
2021/04/06 14:32:16;;;;;;;;;;;21.00;54.30;;;;;;5052675;28;1430;-69